createdAt,value
2023-03-18T02:56:46.534Z,3.93
2023-03-18T02:59:13.749Z,4.21
2023-03-18T03:01:43.640Z,3.99
2023-03-18T06:15:02.691Z,4.72
2023-03-18T08:12:53.264Z,10.93
2023-03-18T09:33:54.286Z,11.96
2023-03-18T09:36:54.564Z,12.38
2023-03-18T12:50:38.054Z,14.24
2023-03-18T12:53:50.180Z,14.26
2023-03-18T12:56:21.517Z,14.55
2023-03-18T12:58:55.989Z,14.35
2023-03-18T13:01:33.295Z,13.69
2023-03-18T15:58:38.520Z,12.73
2023-03-18T16:01:07.977Z,13.02
2023-03-18T17:14:59.030Z,12.38
2023-03-18T17:17:33.009Z,12.10
2023-03-18T17:20:02.619Z,12.15
2023-03-18T17:27:57.594Z,12.02
2023-03-18T17:30:33.747Z,11.94
2023-03-18T17:33:02.330Z,11.85
2023-03-18T17:35:29.785Z,11.73
2023-03-18T17:37:56.804Z,11.84
2023-03-18T17:40:27.917Z,11.13
2023-03-18T18:02:33.994Z,11.82
2023-03-18T18:05:00.682Z,11.84
2023-03-18T18:37:32.082Z,11.04
2023-03-18T18:40:26.792Z,11.21
2023-03-18T18:43:00.864Z,11.21
2023-03-18T18:45:30.368Z,11.32
2023-03-18T18:47:57.542Z,11.32
2023-03-18T19:20:27.976Z,10.67
2023-03-18T19:40:52.997Z,9.67
2023-03-18T19:43:21.766Z,9.72
2023-03-18T19:45:50.582Z,9.68
2023-03-18T19:48:21.342Z,9.98
2023-03-18T19:50:51.039Z,10.10
2023-03-18T19:55:56.010Z,9.72
2023-03-18T20:26:49.013Z,9.47
2023-03-18T20:43:57.198Z,8.77
2023-03-18T21:50:30.023Z,7.95
2023-03-18T21:52:57.115Z,7.81
2023-03-18T21:55:23.725Z,7.60
2023-03-18T21:57:50.470Z,7.29
2023-03-18T22:00:22.389Z,7.32
2023-03-18T22:11:17.893Z,7.42
2023-03-18T22:13:45.483Z,7.50
2023-03-18T22:16:17.363Z,7.32
2023-03-18T22:18:45.134Z,7.41
2023-03-18T22:21:17.631Z,7.24
2023-03-18T22:23:44.518Z,7.04
2023-03-18T22:26:16.525Z,7.26
2023-03-18T22:28:43.674Z,6.96
2023-03-18T22:31:19.380Z,6.86
2023-03-18T22:33:46.631Z,6.95
2023-03-18T22:36:17.593Z,7.05
2023-03-18T22:38:44.547Z,7.16
2023-03-18T22:41:21.122Z,7.10
2023-03-18T22:44:06.455Z,6.87
2023-03-18T22:46:33.071Z,6.71
2023-03-18T22:49:05.290Z,6.53
2023-03-18T22:51:36.372Z,6.64
2023-03-18T22:54:03.176Z,6.55
2023-03-18T22:56:32.163Z,6.59
2023-03-18T22:58:58.818Z,6.31
2023-03-18T23:01:29.840Z,6.24
2023-03-18T23:03:56.448Z,6.33
2023-03-18T23:06:27.223Z,6.19
2023-03-18T23:08:53.985Z,6.16
2023-03-18T23:11:20.782Z,6.24
2023-03-18T23:13:50.049Z,5.81
2023-03-18T23:16:20.489Z,6.01
2023-03-18T23:18:47.417Z,5.95
2023-03-18T23:21:22.173Z,6.00
2023-03-18T23:23:49.301Z,6.00
2023-03-18T23:26:16.813Z,6.01
2023-03-18T23:28:45.125Z,5.90
2023-03-18T23:31:13.387Z,5.63
2023-03-18T23:33:40.192Z,5.24
2023-03-18T23:36:07.531Z,5.06
2023-03-18T23:38:34.237Z,5.40
2023-03-18T23:41:00.991Z,5.03
2023-03-18T23:43:27.590Z,4.98
2023-03-18T23:45:59.554Z,5.18
2023-03-18T23:48:26.221Z,4.94
2023-03-18T23:50:55.278Z,4.66
2023-03-18T23:53:22.083Z,4.84
2023-03-18T23:55:49.372Z,4.88
2023-03-18T23:58:16.609Z,5.04
